sensor_id;sensor_type;location;lat;lon;timestamp;P1;durP1;ratioP1;P2;durP2;ratioP2
38715;SDS011;24833;49.324;8.694;2022-08-19T00:02:02;7.72;;;7.03;;
38715;SDS011;24833;49.324;8.694;2022-08-19T00:04:31;7.65;;;6.95;;
38715;SDS011;24833;49.324;8.694;2022-08-19T00:07:04;9.02;;;6.63;;
38715;SDS011;24833;49.324;8.694;2022-08-19T00:09:32;8.10;;;7.27;;
38715;SDS011;24833;49.324;8.694;2022-08-19T00:12:00;9.68;;;7.85;;
38715;SDS011;24833;49.324;8.694;2022-08-19T00:14:28;10.57;;;8.38;;
38715;SDS011;24833;49.324;8.694;2022-08-19T00:17:02;11.32;;;7.75;;
38715;SDS011;24833;49.324;8.694;2022-08-19T00:19:31;8.00;;;7.30;;
38715;SDS011;24833;49.324;8.694;2022-08-19T00:21:58;9.27;;;8.15;;
38715;SDS011;24833;49.324;8.694;2022-08-19T00:24:26;11.93;;;8.10;;
38715;SDS011;24833;49.324;8.694;2022-08-19T00:26:53;9.63;;;7.75;;
38715;SDS011;24833;49.324;8.694;2022-08-19T00:29:21;8.55;;;7.60;;
38715;SDS011;24833;49.324;8.694;2022-08-19T00:31:51;11.38;;;7.50;;
38715;SDS011;24833;49.324;8.694;2022-08-19T00:34:22;8.48;;;7.60;;
38715;SDS011;24833;49.324;8.694;2022-08-19T00:36:49;8.90;;;7.97;;
38715;SDS011;24833;49.324;8.694;2022-08-19T00:39:17;8.63;;;7.72;;
38715;SDS011;24833;49.324;8.694;2022-08-19T00:41:44;8.82;;;7.97;;
38715;SDS011;24833;49.324;8.694;2022-08-19T00:46:53;8.45;;;7.65;;
38715;SDS011;24833;49.324;8.694;2022-08-19T00:52:04;8.18;;;7.38;;
38715;SDS011;24833;49.324;8.694;2022-08-19T00:54:43;7.80;;;7.00;;
38715;SDS011;24833;49.324;8.694;2022-08-19T00:57:18;8.30;;;7.50;;
38715;SDS011;24833;49.324;8.694;2022-08-19T00:59:57;10.10;;;8.05;;
38715;SDS011;24833;49.324;8.694;2022-08-19T01:02:30;8.65;;;7.78;;
38715;SDS011;24833;49.324;8.694;2022-08-19T01:04:59;8.32;;;7.50;;
38715;SDS011;24833;49.324;8.694;2022-08-19T01:07:32;10.45;;;8.15;;
38715;SDS011;24833;49.324;8.694;2022-08-19T01:10:03;7.13;;;6.53;;
38715;SDS011;24833;49.324;8.694;2022-08-19T01:12:34;8.07;;;7.07;;
38715;SDS011;24833;49.324;8.694;2022-08-19T01:15:03;9.57;;;7.53;;
38715;SDS011;24833;49.324;8.694;2022-08-19T01:17:35;9.10;;;7.70;;
38715;SDS011;24833;49.324;8.694;2022-08-19T01:20:05;8.63;;;7.78;;
38715;SDS011;24833;49.324;8.694;2022-08-19T01:22:46;9.88;;;8.82;;
38715;SDS011;24833;49.324;8.694;2022-08-19T01:25:18;11.82;;;8.98;;
38715;SDS011;24833;49.324;8.694;2022-08-19T01:27:52;10.20;;;7.72;;
38715;SDS011;24833;49.324;8.694;2022-08-19T01:30:23;8.35;;;7.55;;
38715;SDS011;24833;49.324;8.694;2022-08-19T01:32:56;12.07;;;8.13;;
38715;SDS011;24833;49.324;8.694;2022-08-19T01:35:27;9.52;;;7.90;;
38715;SDS011;24833;49.324;8.694;2022-08-19T01:37:57;8.57;;;7.70;;
38715;SDS011;24833;49.324;8.694;2022-08-19T01:40:32;9.48;;;8.18;;
38715;SDS011;24833;49.324;8.694;2022-08-19T01:43:02;9.02;;;7.97;;
38715;SDS011;24833;49.324;8.694;2022-08-19T01:45:31;9.50;;;7.82;;
38715;SDS011;24833;49.324;8.694;2022-08-19T01:48:00;8.20;;;7.40;;
38715;SDS011;24833;49.324;8.694;2022-08-19T01:50:28;8.27;;;7.47;;
38715;SDS011;24833;49.324;8.694;2022-08-19T01:52:58;11.55;;;8.02;;
38715;SDS011;24833;49.324;8.694;2022-08-19T01:55:33;8.82;;;7.82;;
38715;SDS011;24833;49.324;8.694;2022-08-19T01:58:07;9.27;;;8.05;;
38715;SDS011;24833;49.324;8.694;2022-08-19T02:00:40;9.98;;;8.38;;
38715;SDS011;24833;49.324;8.694;2022-08-19T02:03:08;9.93;;;8.60;;
38715;SDS011;24833;49.324;8.694;2022-08-19T02:05:37;8.23;;;7.53;;
38715;SDS011;24833;49.324;8.694;2022-08-19T02:08:06;10.77;;;8.15;;
38715;SDS011;24833;49.324;8.694;2022-08-19T02:10:37;12.55;;;9.45;;
38715;SDS011;24833;49.324;8.694;2022-08-19T02:13:10;10.50;;;8.05;;
38715;SDS011;24833;49.324;8.694;2022-08-19T02:15:39;10.18;;;9.10;;
38715;SDS011;24833;49.324;8.694;2022-08-19T02:18:07;10.75;;;9.07;;
38715;SDS011;24833;49.324;8.694;2022-08-19T02:20:35;12.77;;;9.07;;
38715;SDS011;24833;49.324;8.694;2022-08-19T02:23:04;9.25;;;7.68;;
38715;SDS011;24833;49.324;8.694;2022-08-19T02:25:41;11.45;;;8.85;;
38715;SDS011;24833;49.324;8.694;2022-08-19T02:28:12;10.00;;;9.00;;
38715;SDS011;24833;49.324;8.694;2022-08-19T02:30:44;10.93;;;9.55;;
38715;SDS011;24833;49.324;8.694;2022-08-19T02:33:13;12.27;;;9.98;;
38715;SDS011;24833;49.324;8.694;2022-08-19T02:35:41;10.35;;;9.20;;
38715;SDS011;24833;49.324;8.694;2022-08-19T02:38:11;13.13;;;9.30;;
38715;SDS011;24833;49.324;8.694;2022-08-19T02:40:52;9.73;;;8.80;;
38715;SDS011;24833;49.324;8.694;2022-08-19T02:43:26;9.75;;;8.75;;
38715;SDS011;24833;49.324;8.694;2022-08-19T02:45:59;12.30;;;9.50;;
38715;SDS011;24833;49.324;8.694;2022-08-19T02:48:27;12.07;;;9.18;;
38715;SDS011;24833;49.324;8.694;2022-08-19T02:50:54;13.25;;;10.05;;
38715;SDS011;24833;49.324;8.694;2022-08-19T02:53:22;12.25;;;9.70;;
38715;SDS011;24833;49.324;8.694;2022-08-19T02:55:52;11.55;;;10.35;;
38715;SDS011;24833;49.324;8.694;2022-08-19T02:58:20;11.68;;;9.35;;
38715;SDS011;24833;49.324;8.694;2022-08-19T03:00:49;12.90;;;10.48;;
38715;SDS011;24833;49.324;8.694;2022-08-19T03:03:19;10.98;;;9.88;;
38715;SDS011;24833;49.324;8.694;2022-08-19T03:05:47;11.02;;;9.23;;
38715;SDS011;24833;49.324;8.694;2022-08-19T03:08:22;10.70;;;9.32;;
38715;SDS011;24833;49.324;8.694;2022-08-19T03:10:50;10.80;;;9.77;;
38715;SDS011;24833;49.324;8.694;2022-08-19T03:13:19;12.27;;;10.65;;
38715;SDS011;24833;49.324;8.694;2022-08-19T03:15:47;13.30;;;11.02;;
38715;SDS011;24833;49.324;8.694;2022-08-19T03:18:14;10.85;;;9.75;;
38715;SDS011;24833;49.324;8.694;2022-08-19T03:20:44;13.15;;;10.57;;
38715;SDS011;24833;49.324;8.694;2022-08-19T03:23:16;12.25;;;10.80;;
38715;SDS011;24833;49.324;8.694;2022-08-19T03:25:44;13.38;;;9.98;;
38715;SDS011;24833;49.324;8.694;2022-08-19T03:28:33;10.25;;;8.98;;
38715;SDS011;24833;49.324;8.694;2022-08-19T03:31:05;10.50;;;9.27;;
38715;SDS011;24833;49.324;8.694;2022-08-19T03:33:56;11.18;;;9.93;;
38715;SDS011;24833;49.324;8.694;2022-08-19T03:36:24;10.05;;;9.02;;
38715;SDS011;24833;49.324;8.694;2022-08-19T03:38:56;10.88;;;9.60;;
38715;SDS011;24833;49.324;8.694;2022-08-19T03:41:27;12.52;;;10.40;;
38715;SDS011;24833;49.324;8.694;2022-08-19T03:44:12;16.20;;;10.35;;
38715;SDS011;24833;49.324;8.694;2022-08-19T03:46:44;11.10;;;9.90;;
38715;SDS011;24833;49.324;8.694;2022-08-19T03:49:14;10.95;;;9.90;;
38715;SDS011;24833;49.324;8.694;2022-08-19T03:51:44;11.50;;;10.00;;
38715;SDS011;24833;49.324;8.694;2022-08-19T03:54:13;14.43;;;10.68;;
38715;SDS011;24833;49.324;8.694;2022-08-19T03:56:46;13.40;;;10.85;;
38715;SDS011;24833;49.324;8.694;2022-08-19T03:59:21;12.02;;;10.50;;
38715;SDS011;24833;49.324;8.694;2022-08-19T04:01:55;13.18;;;11.10;;
38715;SDS011;24833;49.324;8.694;2022-08-19T04:04:25;10.50;;;9.43;;
38715;SDS011;24833;49.324;8.694;2022-08-19T04:06:55;13.13;;;11.40;;
38715;SDS011;24833;49.324;8.694;2022-08-19T04:09:23;13.13;;;11.20;;
38715;SDS011;24833;49.324;8.694;2022-08-19T04:11:51;12.07;;;10.77;;
38715;SDS011;24833;49.324;8.694;2022-08-19T04:14:22;13.00;;;10.02;;
38715;SDS011;24833;49.324;8.694;2022-08-19T04:16:54;11.93;;;10.70;;
38715;SDS011;24833;49.324;8.694;2022-08-19T04:19:22;13.68;;;10.45;;
38715;SDS011;24833;49.324;8.694;2022-08-19T04:21:50;12.77;;;10.23;;
38715;SDS011;24833;49.324;8.694;2022-08-19T04:24:19;11.07;;;9.68;;
38715;SDS011;24833;49.324;8.694;2022-08-19T04:26:48;11.88;;;10.57;;
38715;SDS011;24833;49.324;8.694;2022-08-19T04:29:17;13.88;;;10.38;;
38715;SDS011;24833;49.324;8.694;2022-08-19T04:31:52;13.52;;;10.68;;
38715;SDS011;24833;49.324;8.694;2022-08-19T04:34:22;10.73;;;9.48;;
38715;SDS011;24833;49.324;8.694;2022-08-19T04:36:53;10.57;;;9.43;;
38715;SDS011;24833;49.324;8.694;2022-08-19T04:39:24;13.48;;;10.35;;
38715;SDS011;24833;49.324;8.694;2022-08-19T04:42:14;11.70;;;10.20;;
38715;SDS011;24833;49.324;8.694;2022-08-19T04:45:03;11.38;;;9.90;;
38715;SDS011;24833;49.324;8.694;2022-08-19T04:47:38;11.75;;;9.88;;
38715;SDS011;24833;49.324;8.694;2022-08-19T04:50:23;13.27;;;10.25;;
38715;SDS011;24833;49.324;8.694;2022-08-19T04:52:52;10.73;;;9.60;;
38715;SDS011;24833;49.324;8.694;2022-08-19T04:55:19;12.00;;;10.82;;
38715;SDS011;24833;49.324;8.694;2022-08-19T04:57:46;10.02;;;8.98;;
38715;SDS011;24833;49.324;8.694;2022-08-19T05:00:13;12.73;;;10.27;;
38715;SDS011;24833;49.324;8.694;2022-08-19T05:02:41;11.55;;;10.35;;
38715;SDS011;24833;49.324;8.694;2022-08-19T05:05:09;11.25;;;9.30;;
38715;SDS011;24833;49.324;8.694;2022-08-19T05:07:36;9.23;;;8.32;;
38715;SDS011;24833;49.324;8.694;2022-08-19T05:10:04;10.32;;;9.27;;
38715;SDS011;24833;49.324;8.694;2022-08-19T05:12:32;10.80;;;9.52;;
38715;SDS011;24833;49.324;8.694;2022-08-19T05:14:59;10.55;;;9.48;;
38715;SDS011;24833;49.324;8.694;2022-08-19T05:17:29;10.25;;;8.95;;
38715;SDS011;24833;49.324;8.694;2022-08-19T05:20:04;10.27;;;9.25;;
38715;SDS011;24833;49.324;8.694;2022-08-19T05:22:51;11.80;;;9.27;;
38715;SDS011;24833;49.324;8.694;2022-08-19T05:25:19;10.90;;;9.23;;
38715;SDS011;24833;49.324;8.694;2022-08-19T05:27:48;10.52;;;9.55;;
38715;SDS011;24833;49.324;8.694;2022-08-19T05:30:15;12.77;;;9.88;;
38715;SDS011;24833;49.324;8.694;2022-08-19T05:32:43;11.07;;;9.48;;
38715;SDS011;24833;49.324;8.694;2022-08-19T05:35:11;10.50;;;9.40;;
38715;SDS011;24833;49.324;8.694;2022-08-19T05:37:38;11.80;;;10.60;;
38715;SDS011;24833;49.324;8.694;2022-08-19T05:40:09;11.82;;;10.57;;
38715;SDS011;24833;49.324;8.694;2022-08-19T05:42:37;12.85;;;10.68;;
38715;SDS011;24833;49.324;8.694;2022-08-19T05:45:04;13.55;;;9.90;;
38715;SDS011;24833;49.324;8.694;2022-08-19T05:47:32;11.07;;;9.90;;
38715;SDS011;24833;49.324;8.694;2022-08-19T05:49:59;11.90;;;10.70;;
38715;SDS011;24833;49.324;8.694;2022-08-19T05:52:30;15.35;;;10.85;;
38715;SDS011;24833;49.324;8.694;2022-08-19T05:54:58;17.25;;;11.55;;
38715;SDS011;24833;49.324;8.694;2022-08-19T05:57:26;12.00;;;10.77;;
38715;SDS011;24833;49.324;8.694;2022-08-19T05:59:55;11.32;;;10.20;;
38715;SDS011;24833;49.324;8.694;2022-08-19T06:02:29;12.32;;;10.60;;
38715;SDS011;24833;49.324;8.694;2022-08-19T06:04:57;14.25;;;11.13;;
38715;SDS011;24833;49.324;8.694;2022-08-19T06:07:24;17.20;;;13.23;;
38715;SDS011;24833;49.324;8.694;2022-08-19T06:09:52;21.77;;;13.27;;
38715;SDS011;24833;49.324;8.694;2022-08-19T06:12:26;14.80;;;10.98;;
38715;SDS011;24833;49.324;8.694;2022-08-19T06:14:59;14.48;;;11.18;;
38715;SDS011;24833;49.324;8.694;2022-08-19T06:17:35;12.07;;;10.73;;
38715;SDS011;24833;49.324;8.694;2022-08-19T06:20:06;12.45;;;11.10;;
38715;SDS011;24833;49.324;8.694;2022-08-19T06:22:39;11.90;;;10.63;;
38715;SDS011;24833;49.324;8.694;2022-08-19T06:25:08;12.05;;;10.77;;
38715;SDS011;24833;49.324;8.694;2022-08-19T06:27:36;14.32;;;11.43;;
38715;SDS011;24833;49.324;8.694;2022-08-19T06:30:23;12.02;;;10.45;;
38715;SDS011;24833;49.324;8.694;2022-08-19T06:32:50;12.70;;;10.68;;
38715;SDS011;24833;49.324;8.694;2022-08-19T06:35:18;13.25;;;11.30;;
38715;SDS011;24833;49.324;8.694;2022-08-19T06:37:45;14.05;;;11.98;;
38715;SDS011;24833;49.324;8.694;2022-08-19T06:40:13;13.90;;;11.45;;
38715;SDS011;24833;49.324;8.694;2022-08-19T06:42:40;12.32;;;11.18;;
38715;SDS011;24833;49.324;8.694;2022-08-19T06:45:19;12.02;;;10.82;;
38715;SDS011;24833;49.324;8.694;2022-08-19T06:47:59;13.38;;;11.52;;
38715;SDS011;24833;49.324;8.694;2022-08-19T06:50:27;15.45;;;11.27;;
38715;SDS011;24833;49.324;8.694;2022-08-19T06:52:54;14.40;;;12.05;;
38715;SDS011;24833;49.324;8.694;2022-08-19T06:55:21;14.90;;;11.52;;
38715;SDS011;24833;49.324;8.694;2022-08-19T06:57:49;12.38;;;10.38;;
38715;SDS011;24833;49.324;8.694;2022-08-19T07:00:20;11.55;;;10.35;;
38715;SDS011;24833;49.324;8.694;2022-08-19T07:02:47;11.40;;;10.27;;
38715;SDS011;24833;49.324;8.694;2022-08-19T07:05:23;11.52;;;9.65;;
38715;SDS011;24833;49.324;8.694;2022-08-19T07:07:51;11.20;;;9.13;;
38715;SDS011;24833;49.324;8.694;2022-08-19T07:10:18;11.68;;;9.85;;
38715;SDS011;24833;49.324;8.694;2022-08-19T07:12:45;12.32;;;11.13;;
38715;SDS011;24833;49.324;8.694;2022-08-19T07:15:13;14.23;;;10.18;;
38715;SDS011;24833;49.324;8.694;2022-08-19T07:20:15;10.60;;;9.63;;
38715;SDS011;24833;49.324;8.694;2022-08-19T07:22:43;10.90;;;8.98;;
38715;SDS011;24833;49.324;8.694;2022-08-19T07:25:11;10.75;;;9.18;;
38715;SDS011;24833;49.324;8.694;2022-08-19T07:27:39;11.88;;;9.07;;
38715;SDS011;24833;49.324;8.694;2022-08-19T07:30:07;10.50;;;9.40;;
38715;SDS011;24833;49.324;8.694;2022-08-19T07:32:40;9.85;;;8.85;;
38715;SDS011;24833;49.324;8.694;2022-08-19T07:35:08;14.32;;;9.48;;
38715;SDS011;24833;49.324;8.694;2022-08-19T07:37:36;10.13;;;9.18;;
38715;SDS011;24833;49.324;8.694;2022-08-19T07:40:05;10.20;;;8.38;;
38715;SDS011;24833;49.324;8.694;2022-08-19T07:42:33;9.23;;;8.25;;
38715;SDS011;24833;49.324;8.694;2022-08-19T07:45:00;9.93;;;8.75;;
38715;SDS011;24833;49.324;8.694;2022-08-19T07:47:28;11.05;;;9.02;;
38715;SDS011;24833;49.324;8.694;2022-08-19T07:50:16;9.73;;;8.55;;
38715;SDS011;24833;49.324;8.694;2022-08-19T07:52:46;8.88;;;8.02;;
38715;SDS011;24833;49.324;8.694;2022-08-19T07:55:17;8.57;;;7.47;;
38715;SDS011;24833;49.324;8.694;2022-08-19T07:58:08;9.02;;;8.18;;
38715;SDS011;24833;49.324;8.694;2022-08-19T08:00:37;9.40;;;7.97;;
38715;SDS011;24833;49.324;8.694;2022-08-19T08:03:05;8.85;;;7.95;;
38715;SDS011;24833;49.324;8.694;2022-08-19T08:05:32;12.27;;;7.88;;
38715;SDS011;24833;49.324;8.694;2022-08-19T08:08:17;9.80;;;8.55;;
38715;SDS011;24833;49.324;8.694;2022-08-19T08:11:09;10.20;;;7.15;;
38715;SDS011;24833;49.324;8.694;2022-08-19T08:13:41;9.25;;;6.75;;
38715;SDS011;24833;49.324;8.694;2022-08-19T08:16:08;8.57;;;7.75;;
38715;SDS011;24833;49.324;8.694;2022-08-19T08:18:39;11.60;;;7.75;;
38715;SDS011;24833;49.324;8.694;2022-08-19T08:21:16;12.15;;;7.88;;
38715;SDS011;24833;49.324;8.694;2022-08-19T08:23:43;11.02;;;7.82;;
38715;SDS011;24833;49.324;8.694;2022-08-19T08:26:10;10.43;;;8.10;;
38715;SDS011;24833;49.324;8.694;2022-08-19T08:28:41;10.10;;;7.63;;
38715;SDS011;24833;49.324;8.694;2022-08-19T08:31:13;7.45;;;6.65;;
38715;SDS011;24833;49.324;8.694;2022-08-19T08:33:40;7.65;;;5.80;;
38715;SDS011;24833;49.324;8.694;2022-08-19T08:36:08;7.70;;;6.90;;
38715;SDS011;24833;49.324;8.694;2022-08-19T08:38:37;6.32;;;5.70;;
38715;SDS011;24833;49.324;8.694;2022-08-19T08:43:55;7.28;;;6.53;;
38715;SDS011;24833;49.324;8.694;2022-08-19T08:49:41;8.38;;;6.78;;
38715;SDS011;24833;49.324;8.694;2022-08-19T08:52:30;8.23;;;6.85;;
38715;SDS011;24833;49.324;8.694;2022-08-19T08:55:07;8.35;;;6.60;;
38715;SDS011;24833;49.324;8.694;2022-08-19T09:00:18;6.60;;;5.43;;
38715;SDS011;24833;49.324;8.694;2022-08-19T09:02:53;8.32;;;5.63;;
38715;SDS011;24833;49.324;8.694;2022-08-19T09:05:22;7.07;;;5.22;;
38715;SDS011;24833;49.324;8.694;2022-08-19T09:08:04;7.28;;;5.95;;
38715;SDS011;24833;49.324;8.694;2022-08-19T09:10:46;4.95;;;4.30;;
38715;SDS011;24833;49.324;8.694;2022-08-19T09:16:20;7.22;;;5.15;;
38715;SDS011;24833;49.324;8.694;2022-08-19T09:18:55;7.47;;;5.32;;
38715;SDS011;24833;49.324;8.694;2022-08-19T09:21:32;4.72;;;4.20;;
38715;SDS011;24833;49.324;8.694;2022-08-19T09:24:02;5.00;;;4.07;;
38715;SDS011;24833;49.324;8.694;2022-08-19T09:26:32;4.50;;;3.95;;
38715;SDS011;24833;49.324;8.694;2022-08-19T09:29:13;7.05;;;3.97;;
38715;SDS011;24833;49.324;8.694;2022-08-19T09:31:40;7.47;;;4.38;;
38715;SDS011;24833;49.324;8.694;2022-08-19T09:34:07;7.47;;;4.90;;
38715;SDS011;24833;49.324;8.694;2022-08-19T09:36:46;6.03;;;3.90;;
38715;SDS011;24833;49.324;8.694;2022-08-19T09:39:20;5.00;;;4.50;;
38715;SDS011;24833;49.324;8.694;2022-08-19T09:41:48;4.72;;;4.10;;
38715;SDS011;24833;49.324;8.694;2022-08-19T09:44:16;6.45;;;4.40;;
38715;SDS011;24833;49.324;8.694;2022-08-19T09:46:44;4.45;;;4.05;;
38715;SDS011;24833;49.324;8.694;2022-08-19T09:49:17;4.00;;;3.70;;
38715;SDS011;24833;49.324;8.694;2022-08-19T09:51:50;3.85;;;3.30;;
38715;SDS011;24833;49.324;8.694;2022-08-19T09:54:20;6.93;;;3.83;;
38715;SDS011;24833;49.324;8.694;2022-08-19T09:56:50;6.72;;;3.40;;
38715;SDS011;24833;49.324;8.694;2022-08-19T09:59:18;4.22;;;3.72;;
38715;SDS011;24833;49.324;8.694;2022-08-19T10:01:46;4.93;;;3.78;;
38715;SDS011;24833;49.324;8.694;2022-08-19T10:04:15;3.83;;;2.92;;
38715;SDS011;24833;49.324;8.694;2022-08-19T10:06:55;4.15;;;3.10;;
38715;SDS011;24833;49.324;8.694;2022-08-19T10:09:22;5.38;;;3.50;;
38715;SDS011;24833;49.324;8.694;2022-08-19T10:11:59;3.50;;;2.80;;
38715;SDS011;24833;49.324;8.694;2022-08-19T10:14:28;2.65;;;2.45;;
38715;SDS011;24833;49.324;8.694;2022-08-19T10:16:55;3.35;;;2.78;;
38715;SDS011;24833;49.324;8.694;2022-08-19T10:19:24;3.20;;;2.67;;
38715;SDS011;24833;49.324;8.694;2022-08-19T10:21:52;4.80;;;3.03;;
38715;SDS011;24833;49.324;8.694;2022-08-19T10:24:25;2.70;;;2.50;;
38715;SDS011;24833;49.324;8.694;2022-08-19T10:26:53;2.70;;;2.50;;
38715;SDS011;24833;49.324;8.694;2022-08-19T10:29:25;3.55;;;2.75;;
38715;SDS011;24833;49.324;8.694;2022-08-19T10:31:59;4.78;;;3.05;;
38715;SDS011;24833;49.324;8.694;2022-08-19T10:34:28;3.08;;;2.20;;
38715;SDS011;24833;49.324;8.694;2022-08-19T10:36:57;3.67;;;3.35;;
38715;SDS011;24833;49.324;8.694;2022-08-19T10:39:28;4.63;;;3.25;;
38715;SDS011;24833;49.324;8.694;2022-08-19T10:42:07;3.85;;;3.53;;
38715;SDS011;24833;49.324;8.694;2022-08-19T10:44:40;3.33;;;2.80;;
38715;SDS011;24833;49.324;8.694;2022-08-19T10:47:08;3.80;;;3.20;;
38715;SDS011;24833;49.324;8.694;2022-08-19T10:49:51;4.00;;;2.75;;
38715;SDS011;24833;49.324;8.694;2022-08-19T10:52:44;4.28;;;3.38;;
38715;SDS011;24833;49.324;8.694;2022-08-19T10:55:16;6.80;;;2.65;;
38715;SDS011;24833;49.324;8.694;2022-08-19T10:58:12;5.35;;;2.58;;
38715;SDS011;24833;49.324;8.694;2022-08-19T11:00:42;6.78;;;3.05;;
38715;SDS011;24833;49.324;8.694;2022-08-19T11:03:10;4.10;;;2.80;;
38715;SDS011;24833;49.324;8.694;2022-08-19T11:05:38;4.60;;;3.08;;
38715;SDS011;24833;49.324;8.694;2022-08-19T11:08:06;3.60;;;2.95;;
38715;SDS011;24833;49.324;8.694;2022-08-19T11:10:50;3.05;;;2.40;;
38715;SDS011;24833;49.324;8.694;2022-08-19T11:13:23;4.68;;;2.53;;
38715;SDS011;24833;49.324;8.694;2022-08-19T11:16:01;3.42;;;2.75;;
38715;SDS011;24833;49.324;8.694;2022-08-19T11:18:41;5.10;;;2.97;;
38715;SDS011;24833;49.324;8.694;2022-08-19T11:21:15;3.65;;;2.30;;
38715;SDS011;24833;49.324;8.694;2022-08-19T11:23:49;3.05;;;2.78;;
38715;SDS011;24833;49.324;8.694;2022-08-19T11:26:19;3.15;;;2.85;;
38715;SDS011;24833;49.324;8.694;2022-08-19T11:28:48;3.90;;;2.80;;
38715;SDS011;24833;49.324;8.694;2022-08-19T11:31:19;3.40;;;2.42;;
38715;SDS011;24833;49.324;8.694;2022-08-19T11:33:55;4.22;;;3.00;;
38715;SDS011;24833;49.324;8.694;2022-08-19T11:36:26;5.15;;;2.95;;
38715;SDS011;24833;49.324;8.694;2022-08-19T11:38:53;3.05;;;2.83;;
38715;SDS011;24833;49.324;8.694;2022-08-19T11:41:21;3.63;;;3.10;;
38715;SDS011;24833;49.324;8.694;2022-08-19T11:43:50;5.38;;;3.25;;
38715;SDS011;24833;49.324;8.694;2022-08-19T11:46:20;4.55;;;3.03;;
38715;SDS011;24833;49.324;8.694;2022-08-19T11:48:50;5.28;;;3.47;;
38715;SDS011;24833;49.324;8.694;2022-08-19T11:51:19;3.20;;;2.75;;
38715;SDS011;24833;49.324;8.694;2022-08-19T11:53:48;5.45;;;3.28;;
38715;SDS011;24833;49.324;8.694;2022-08-19T11:56:16;3.85;;;3.22;;
38715;SDS011;24833;49.324;8.694;2022-08-19T11:58:45;4.20;;;2.95;;
38715;SDS011;24833;49.324;8.694;2022-08-19T12:01:13;3.92;;;3.42;;
38715;SDS011;24833;49.324;8.694;2022-08-19T12:03:44;4.07;;;3.53;;
38715;SDS011;24833;49.324;8.694;2022-08-19T12:06:14;3.67;;;3.38;;
38715;SDS011;24833;49.324;8.694;2022-08-19T12:08:55;3.75;;;3.45;;
38715;SDS011;24833;49.324;8.694;2022-08-19T12:11:26;3.70;;;3.40;;
38715;SDS011;24833;49.324;8.694;2022-08-19T12:13:56;4.38;;;3.35;;
38715;SDS011;24833;49.324;8.694;2022-08-19T12:16:24;3.42;;;3.13;;
38715;SDS011;24833;49.324;8.694;2022-08-19T12:18:55;3.67;;;3.38;;
38715;SDS011;24833;49.324;8.694;2022-08-19T12:21:24;3.97;;;3.40;;
38715;SDS011;24833;49.324;8.694;2022-08-19T12:23:57;3.85;;;3.45;;
38715;SDS011;24833;49.324;8.694;2022-08-19T12:26:26;3.88;;;3.40;;
38715;SDS011;24833;49.324;8.694;2022-08-19T12:28:55;3.70;;;3.33;;
38715;SDS011;24833;49.324;8.694;2022-08-19T12:31:22;3.90;;;3.60;;
38715;SDS011;24833;49.324;8.694;2022-08-19T12:33:49;4.05;;;3.42;;
38715;SDS011;24833;49.324;8.694;2022-08-19T12:36:18;5.32;;;3.20;;
38715;SDS011;24833;49.324;8.694;2022-08-19T12:38:45;2.97;;;2.78;;
38715;SDS011;24833;49.324;8.694;2022-08-19T12:41:13;3.60;;;3.30;;
38715;SDS011;24833;49.324;8.694;2022-08-19T12:43:44;3.55;;;3.20;;
38715;SDS011;24833;49.324;8.694;2022-08-19T12:46:11;8.27;;;3.20;;
38715;SDS011;24833;49.324;8.694;2022-08-19T12:48:41;3.22;;;2.90;;
38715;SDS011;24833;49.324;8.694;2022-08-19T12:51:09;3.55;;;3.25;;
38715;SDS011;24833;49.324;8.694;2022-08-19T12:53:40;4.03;;;3.55;;
38715;SDS011;24833;49.324;8.694;2022-08-19T12:56:08;4.38;;;3.53;;
38715;SDS011;24833;49.324;8.694;2022-08-19T12:58:38;3.72;;;3.40;;
38715;SDS011;24833;49.324;8.694;2022-08-19T13:01:14;3.45;;;3.10;;
38715;SDS011;24833;49.324;8.694;2022-08-19T13:03:47;4.20;;;3.15;;
38715;SDS011;24833;49.324;8.694;2022-08-19T13:06:16;3.63;;;2.90;;
38715;SDS011;24833;49.324;8.694;2022-08-19T13:08:45;7.27;;;3.33;;
38715;SDS011;24833;49.324;8.694;2022-08-19T13:11:16;3.80;;;3.25;;
38715;SDS011;24833;49.324;8.694;2022-08-19T13:13:47;6.00;;;3.55;;
38715;SDS011;24833;49.324;8.694;2022-08-19T13:16:18;3.28;;;2.92;;
38715;SDS011;24833;49.324;8.694;2022-08-19T13:18:46;3.10;;;2.80;;
38715;SDS011;24833;49.324;8.694;2022-08-19T13:21:14;5.13;;;3.38;;
38715;SDS011;24833;49.324;8.694;2022-08-19T13:23:41;4.07;;;3.60;;
38715;SDS011;24833;49.324;8.694;2022-08-19T13:26:10;3.50;;;3.20;;
38715;SDS011;24833;49.324;8.694;2022-08-19T13:28:38;3.20;;;2.95;;
38715;SDS011;24833;49.324;8.694;2022-08-19T13:31:26;2.85;;;2.65;;
38715;SDS011;24833;49.324;8.694;2022-08-19T13:34:15;3.35;;;3.05;;
38715;SDS011;24833;49.324;8.694;2022-08-19T13:36:45;3.80;;;2.97;;
38715;SDS011;24833;49.324;8.694;2022-08-19T13:39:12;3.75;;;2.65;;
38715;SDS011;24833;49.324;8.694;2022-08-19T13:41:42;2.90;;;2.45;;
38715;SDS011;24833;49.324;8.694;2022-08-19T13:44:16;3.35;;;2.97;;
38715;SDS011;24833;49.324;8.694;2022-08-19T13:46:45;5.88;;;2.72;;
38715;SDS011;24833;49.324;8.694;2022-08-19T13:49:19;2.38;;;2.20;;
38715;SDS011;24833;49.324;8.694;2022-08-19T13:51:46;3.08;;;2.50;;
38715;SDS011;24833;49.324;8.694;2022-08-19T13:54:14;3.47;;;2.42;;
38715;SDS011;24833;49.324;8.694;2022-08-19T13:56:41;2.70;;;2.45;;
38715;SDS011;24833;49.324;8.694;2022-08-19T13:59:11;2.47;;;2.28;;
38715;SDS011;24833;49.324;8.694;2022-08-19T14:01:38;3.53;;;2.70;;
38715;SDS011;24833;49.324;8.694;2022-08-19T14:04:07;4.22;;;2.65;;
38715;SDS011;24833;49.324;8.694;2022-08-19T14:06:34;2.92;;;2.58;;
38715;SDS011;24833;49.324;8.694;2022-08-19T14:09:02;3.53;;;2.63;;
38715;SDS011;24833;49.324;8.694;2022-08-19T14:11:30;3.33;;;2.40;;
38715;SDS011;24833;49.324;8.694;2022-08-19T14:13:57;4.47;;;2.67;;
38715;SDS011;24833;49.324;8.694;2022-08-19T14:16:25;2.90;;;2.70;;
38715;SDS011;24833;49.324;8.694;2022-08-19T14:18:53;3.90;;;2.47;;
38715;SDS011;24833;49.324;8.694;2022-08-19T14:21:21;2.50;;;2.30;;
38715;SDS011;24833;49.324;8.694;2022-08-19T14:23:50;2.67;;;2.33;;
38715;SDS011;24833;49.324;8.694;2022-08-19T14:26:18;3.60;;;2.60;;
38715;SDS011;24833;49.324;8.694;2022-08-19T14:28:48;3.83;;;2.38;;
38715;SDS011;24833;49.324;8.694;2022-08-19T14:31:16;2.80;;;2.50;;
38715;SDS011;24833;49.324;8.694;2022-08-19T14:33:46;2.70;;;2.50;;
38715;SDS011;24833;49.324;8.694;2022-08-19T14:36:14;2.60;;;2.35;;
38715;SDS011;24833;49.324;8.694;2022-08-19T14:38:41;2.42;;;2.22;;
38715;SDS011;24833;49.324;8.694;2022-08-19T14:43:46;4.15;;;2.15;;
38715;SDS011;24833;49.324;8.694;2022-08-19T14:46:17;2.70;;;2.50;;
38715;SDS011;24833;49.324;8.694;2022-08-19T14:48:47;2.33;;;2.13;;
38715;SDS011;24833;49.324;8.694;2022-08-19T14:51:18;2.40;;;2.20;;
38715;SDS011;24833;49.324;8.694;2022-08-19T14:53:47;2.17;;;2.00;;
38715;SDS011;24833;49.324;8.694;2022-08-19T14:56:19;4.50;;;2.30;;
38715;SDS011;24833;49.324;8.694;2022-08-19T14:58:51;2.80;;;2.50;;
38715;SDS011;24833;49.324;8.694;2022-08-19T15:01:19;2.53;;;2.10;;
38715;SDS011;24833;49.324;8.694;2022-08-19T15:03:49;4.57;;;2.80;;
38715;SDS011;24833;49.324;8.694;2022-08-19T15:06:19;2.40;;;2.20;;
38715;SDS011;24833;49.324;8.694;2022-08-19T15:08:48;5.38;;;2.53;;
38715;SDS011;24833;49.324;8.694;2022-08-19T15:11:18;2.55;;;2.08;;
38715;SDS011;24833;49.324;8.694;2022-08-19T15:13:49;2.22;;;2.10;;
38715;SDS011;24833;49.324;8.694;2022-08-19T15:16:17;1.77;;;1.67;;
38715;SDS011;24833;49.324;8.694;2022-08-19T15:18:45;4.90;;;2.10;;
38715;SDS011;24833;49.324;8.694;2022-08-19T15:21:16;2.70;;;2.00;;
38715;SDS011;24833;49.324;8.694;2022-08-19T15:23:52;3.05;;;2.13;;
38715;SDS011;24833;49.324;8.694;2022-08-19T15:28:51;2.20;;;2.00;;